createdAt,value
2022-10-12T00:00:36.169Z,101710.31
2022-10-12T00:03:28.324Z,101710.30
2022-10-12T00:06:09.836Z,101707.48
2022-10-12T00:08:43.807Z,101714.64
2022-10-12T00:11:18.146Z,101712.27
2022-10-12T00:13:50.587Z,101712.14
2022-10-12T00:16:24.157Z,101712.50
2022-10-12T00:18:57.957Z,101710.96
2022-10-12T00:21:31.345Z,101714.91
2022-10-12T00:24:04.861Z,101712.20
2022-10-12T00:26:37.022Z,101708.05
2022-10-12T00:29:08.958Z,101710.22
2022-10-12T00:31:41.291Z,101717.45
2022-10-12T00:34:13.299Z,101712.04
2022-10-12T00:36:45.446Z,101717.00
2022-10-12T00:39:17.921Z,101714.18
2022-10-12T00:41:50.197Z,101716.41
2022-10-12T00:44:44.006Z,101717.90
2022-10-12T00:47:26.147Z,101719.23
2022-10-12T00:50:04.513Z,101719.54
2022-10-12T00:52:41.624Z,101718.63
2022-10-12T00:55:16.569Z,101721.73
2022-10-12T00:57:49.538Z,101721.07
2022-10-12T01:00:22.357Z,101721.89
2022-10-12T01:02:56.546Z,101723.27
2022-10-12T01:05:29.429Z,101722.56
2022-10-12T01:08:02.913Z,101723.52
2022-10-12T01:10:36.051Z,101718.58
2022-10-12T01:13:08.822Z,101719.27
2022-10-12T01:15:45.654Z,101720.54
2022-10-12T01:18:20.774Z,101721.52
2022-10-12T01:21:10.680Z,101721.79
2022-10-12T01:24:12.907Z,101721.61
2022-10-12T01:27:21.527Z,101717.95
2022-10-12T01:30:11.657Z,101703.56
2022-10-12T01:33:09.555Z,101715.52
2022-10-12T01:35:49.353Z,101718.50
2022-10-12T01:38:36.097Z,101718.17
2022-10-12T01:41:14.399Z,101722.84
2022-10-12T01:43:47.741Z,101719.89
2022-10-12T01:46:47.575Z,101712.45
2022-10-12T01:49:23.635Z,101717.89
2022-10-12T01:52:26.472Z,101705.54
2022-10-12T01:55:18.088Z,101720.41
2022-10-12T01:58:17.694Z,101719.98
2022-10-12T02:00:58.777Z,101724.39
2022-10-12T02:03:41.280Z,101720.58
2022-10-12T02:06:16.963Z,101718.22
2022-10-12T02:08:57.052Z,101718.54
2022-10-12T02:11:29.896Z,101713.85
2022-10-12T02:14:09.692Z,101716.44
2022-10-12T02:16:47.160Z,101714.71
2022-10-12T02:19:23.148Z,101713.89
2022-10-12T02:22:01.836Z,101718.09
2022-10-12T02:24:36.679Z,101716.77
2022-10-12T02:27:08.432Z,101719.23
2022-10-12T02:29:41.991Z,101712.95
2022-10-12T02:32:19.019Z,101714.58
2022-10-12T02:34:56.786Z,101714.59
2022-10-12T02:37:36.169Z,101709.68
2022-10-12T02:40:14.942Z,101715.55
2022-10-12T02:43:10.028Z,101720.09
2022-10-12T02:45:47.506Z,101718.06
2022-10-12T02:48:24.064Z,101718.80
2022-10-12T02:50:59.084Z,101719.08
2022-10-12T02:53:32.924Z,101720.13
2022-10-12T02:56:08.634Z,101723.27
2022-10-12T02:58:42.576Z,101722.42
2022-10-12T03:01:17.150Z,101723.76
2022-10-12T03:03:47.917Z,101721.11
2022-10-12T03:06:21.728Z,101725.13
2022-10-12T03:08:57.098Z,101713.59
2022-10-12T03:11:29.730Z,101729.49
2022-10-12T03:14:01.997Z,101726.75
2022-10-12T03:16:34.244Z,101725.48
2022-10-12T03:19:06.480Z,101726.77
2022-10-12T03:21:38.620Z,101715.92
2022-10-12T03:24:11.256Z,101727.33
2022-10-12T03:26:43.609Z,101724.65
2022-10-12T03:29:15.670Z,101727.36
2022-10-12T03:31:47.819Z,101731.45
2022-10-12T03:34:19.849Z,101733.48
2022-10-12T03:36:52.559Z,101732.32
2022-10-12T03:39:25.809Z,101733.14
2022-10-12T03:41:58.229Z,101735.86
2022-10-12T03:44:30.425Z,101735.67
2022-10-12T03:47:02.441Z,101737.71
2022-10-12T03:49:37.202Z,101734.52
2022-10-12T03:52:09.418Z,101713.94
2022-10-12T03:54:41.508Z,101736.45
2022-10-12T03:57:13.802Z,101736.08
2022-10-12T03:59:45.972Z,101733.05
2022-10-12T04:02:18.041Z,101733.28
2022-10-12T04:04:50.334Z,101733.76
2022-10-12T04:07:22.322Z,101736.55
2022-10-12T04:09:57.051Z,101740.83
2022-10-12T04:12:29.450Z,101736.15
2022-10-12T04:15:02.097Z,101739.91
2022-10-12T04:17:34.160Z,101739.21
2022-10-12T04:20:07.709Z,101722.13
2022-10-12T04:22:39.883Z,101738.70
2022-10-12T04:25:13.482Z,101741.63
2022-10-12T04:27:45.691Z,101739.28
2022-10-12T04:30:18.719Z,101739.55
2022-10-12T04:32:54.490Z,101741.40
2022-10-12T04:35:26.564Z,101744.98
2022-10-12T04:37:59.136Z,101743.84
2022-10-12T04:40:31.557Z,101727.76
2022-10-12T04:43:03.729Z,101742.44
2022-10-12T04:45:35.686Z,101745.00
2022-10-12T04:48:08.534Z,101742.00
2022-10-12T04:50:40.680Z,101743.95
2022-10-12T04:53:12.838Z,101742.59
2022-10-12T04:55:45.526Z,101729.77
2022-10-12T04:58:17.818Z,101743.61
2022-10-12T05:00:50.851Z,101745.17
2022-10-12T05:03:22.990Z,101745.78
2022-10-12T05:05:58.464Z,101750.00
2022-10-12T05:08:31.955Z,101750.98
2022-10-12T05:11:04.136Z,101752.79
2022-10-12T05:13:36.357Z,101747.96
2022-10-12T05:16:09.288Z,101748.70
2022-10-12T05:18:41.527Z,101756.72
2022-10-12T05:21:13.801Z,101754.56
2022-10-12T05:23:46.195Z,101756.55
2022-10-12T05:26:18.530Z,101757.44
2022-10-12T05:28:50.809Z,101756.62
2022-10-12T05:31:24.522Z,101763.01
2022-10-12T05:33:59.976Z,101762.66
2022-10-12T05:36:32.291Z,101764.47
2022-10-12T05:39:05.089Z,101760.17
2022-10-12T05:41:37.635Z,101761.86
2022-10-12T05:44:11.075Z,101759.79
2022-10-12T05:46:43.703Z,101766.14
2022-10-12T05:49:16.182Z,101762.28
2022-10-12T05:51:48.805Z,101761.17
2022-10-12T05:54:20.878Z,101767.31
2022-10-12T05:56:53.554Z,101763.04
2022-10-12T05:59:28.333Z,101767.75
2022-10-12T06:02:00.404Z,101740.03
2022-10-12T06:04:33.023Z,101769.96
2022-10-12T06:07:04.990Z,101778.01
2022-10-12T06:09:39.683Z,101781.63
2022-10-12T06:12:11.567Z,101781.61
2022-10-12T06:14:43.742Z,101780.77
2022-10-12T06:17:16.065Z,101785.36
2022-10-12T06:19:48.376Z,101783.34
2022-10-12T06:22:20.579Z,101784.04
2022-10-12T06:24:52.969Z,101785.85
2022-10-12T06:27:25.419Z,101787.80
2022-10-12T06:29:58.007Z,101790.95
2022-10-12T06:32:34.698Z,101788.23
2022-10-12T06:35:08.473Z,101792.73
2022-10-12T06:37:49.971Z,101793.19
2022-10-12T06:40:22.718Z,101788.30
2022-10-12T06:42:58.582Z,101791.81
2022-10-12T06:45:32.417Z,101790.32
2022-10-12T06:48:05.238Z,101789.38
2022-10-12T06:50:37.900Z,101787.06
2022-10-12T06:53:10.011Z,101791.23
2022-10-12T06:55:43.852Z,101788.66
2022-10-12T06:58:16.045Z,101789.09
2022-10-12T07:00:48.427Z,101779.29
2022-10-12T07:03:20.663Z,101789.10
2022-10-12T07:05:52.772Z,101793.55
2022-10-12T07:08:24.922Z,101798.13
2022-10-12T07:11:04.081Z,101801.70
2022-10-12T07:13:37.151Z,101796.31
2022-10-12T07:16:09.829Z,101796.31
2022-10-12T07:18:42.141Z,101797.91
2022-10-12T07:21:14.388Z,101795.23
2022-10-12T07:23:46.748Z,101799.90
2022-10-12T07:26:18.769Z,101802.08
2022-10-12T07:28:50.879Z,101804.97
2022-10-12T07:31:23.358Z,101808.71
2022-10-12T07:33:55.392Z,101814.27
2022-10-12T07:36:47.262Z,101811.84
2022-10-12T07:39:19.794Z,101805.83
2022-10-12T07:41:52.240Z,101805.86
2022-10-12T07:44:24.807Z,101807.50
2022-10-12T07:46:57.452Z,101807.58
2022-10-12T07:49:29.700Z,101804.67
2022-10-12T07:52:01.839Z,101805.34
2022-10-12T07:54:34.696Z,101806.67
2022-10-12T07:57:07.197Z,101803.30
2022-10-12T07:59:39.534Z,101802.88
2022-10-12T08:02:12.365Z,101803.33
2022-10-12T08:04:44.522Z,101805.77
2022-10-12T08:07:16.565Z,101806.04
2022-10-12T08:09:50.670Z,101807.65
2022-10-12T08:12:23.813Z,101809.60
2022-10-12T08:14:55.861Z,101809.95
2022-10-12T08:17:28.157Z,101807.14
2022-10-12T08:20:00.898Z,101804.90
2022-10-12T08:22:33.225Z,101802.98
2022-10-12T08:25:06.906Z,101803.20
2022-10-12T08:27:40.034Z,101800.93
2022-10-12T08:30:14.887Z,101805.27
2022-10-12T08:32:47.251Z,101806.79
2022-10-12T08:35:19.680Z,101807.26
2022-10-12T08:37:51.951Z,101802.83
2022-10-12T08:40:37.163Z,101792.84
2022-10-12T08:43:16.377Z,101804.82
2022-10-12T08:45:54.332Z,101805.85
2022-10-12T08:48:30.010Z,101802.41
2022-10-12T08:51:06.773Z,101797.34
2022-10-12T08:53:51.292Z,101804.73
2022-10-12T08:56:23.914Z,101806.59
2022-10-12T08:58:56.754Z,101809.17
2022-10-12T09:01:37.334Z,101810.45
2022-10-12T09:04:31.590Z,101808.71
2022-10-12T09:07:11.803Z,101804.40
2022-10-12T09:09:57.797Z,101796.57
2022-10-12T09:12:41.398Z,101808.02
2022-10-12T09:15:17.217Z,101807.06
2022-10-12T09:17:53.300Z,101807.67
2022-10-12T09:20:28.742Z,101806.42
2022-10-12T09:23:04.374Z,101805.34
2022-10-12T09:25:36.469Z,101802.23
2022-10-12T09:28:18.433Z,101798.48
2022-10-12T09:31:08.144Z,101793.08
2022-10-12T09:33:46.122Z,101781.46
2022-10-12T09:36:21.673Z,101794.90
2022-10-12T09:38:54.375Z,101795.62
2022-10-12T09:41:30.988Z,101795.66
2022-10-12T09:44:05.363Z,101793.58
2022-10-12T09:46:44.558Z,101792.34
2022-10-12T09:49:16.638Z,101793.95
2022-10-12T09:51:49.865Z,101793.32
2022-10-12T09:54:27.172Z,101797.56
2022-10-12T09:56:59.731Z,101779.16
2022-10-12T09:59:36.226Z,101791.55
2022-10-12T10:02:17.541Z,101791.11
2022-10-12T10:04:50.967Z,101793.27
2022-10-12T10:07:27.610Z,101796.54
2022-10-12T10:10:26.561Z,101793.45
2022-10-12T10:13:03.889Z,101789.98
2022-10-12T10:15:38.905Z,101783.70
2022-10-12T10:18:26.119Z,101780.94
2022-10-12T10:21:01.294Z,101777.92
2022-10-12T10:23:37.509Z,101763.15
2022-10-12T10:26:12.140Z,101775.46
2022-10-12T10:28:45.556Z,101775.81
2022-10-12T10:31:23.345Z,101774.92
2022-10-12T10:34:25.047Z,101772.45
2022-10-12T10:36:58.344Z,101770.46
2022-10-12T10:39:33.516Z,101772.40
2022-10-12T10:42:18.528Z,101767.91
2022-10-12T10:44:52.833Z,101768.30
2022-10-12T10:47:25.081Z,101764.70
2022-10-12T10:50:00.671Z,101764.55
2022-10-12T10:52:36.105Z,101758.63
2022-10-12T10:55:20.407Z,101761.15
2022-10-12T10:58:03.076Z,101763.77
2022-10-12T11:00:39.721Z,101758.35
2022-10-12T11:06:06.326Z,101751.41
2022-10-12T11:08:40.714Z,101749.79
2022-10-12T11:11:16.854Z,101749.98
2022-10-12T11:13:55.707Z,101745.98
2022-10-12T11:16:34.619Z,101748.48
2022-10-12T11:19:18.307Z,101746.77
2022-10-12T11:21:55.558Z,101743.36
2022-10-12T11:24:33.629Z,101740.31
2022-10-12T11:27:12.452Z,101735.45
2022-10-12T11:29:44.751Z,101731.20
2022-10-12T11:32:26.718Z,101729.90
2022-10-12T11:35:02.254Z,101730.19
2022-10-12T11:37:39.636Z,101725.98
2022-10-12T11:40:27.032Z,101726.34
2022-10-12T11:43:19.000Z,101728.27
2022-10-12T11:45:56.244Z,101724.30
2022-10-12T11:48:34.143Z,101710.38
2022-10-12T11:51:07.841Z,101721.25
2022-10-12T11:53:49.642Z,101717.75
2022-10-12T11:56:26.114Z,101715.51
2022-10-12T11:59:02.964Z,101710.59
2022-10-12T12:01:50.850Z,101711.23
2022-10-12T12:04:43.760Z,101712.49
2022-10-12T12:07:44.229Z,101707.89
2022-10-12T12:10:50.301Z,101705.07
2022-10-12T12:13:27.306Z,101704.00
2022-10-12T12:16:32.132Z,101699.42
2022-10-12T12:19:39.139Z,101702.14
2022-10-12T12:22:26.621Z,101703.33
2022-10-12T12:25:04.290Z,101699.35
2022-10-12T12:27:39.569Z,101704.73
2022-10-12T12:30:27.568Z,101697.98
2022-10-12T12:33:02.359Z,101697.45
2022-10-12T12:35:36.511Z,101694.02
2022-10-12T12:38:23.266Z,101694.77
2022-10-12T12:41:11.065Z,101683.37
2022-10-12T12:44:01.325Z,101692.61
2022-10-12T12:47:43.577Z,101693.64
2022-10-12T12:50:35.590Z,101696.85
2022-10-12T12:53:13.988Z,101695.67
2022-10-12T12:56:04.782Z,101698.58
2022-10-12T12:59:01.091Z,101694.08
2022-10-12T13:01:54.680Z,101687.23
2022-10-12T13:04:49.174Z,101684.58
2022-10-12T13:07:47.799Z,101683.61
2022-10-12T13:10:31.560Z,101678.64
2022-10-12T13:13:24.893Z,101678.27
2022-10-12T13:16:28.509Z,101675.88
2022-10-12T13:19:12.185Z,101674.31
2022-10-12T13:21:47.607Z,101673.55
2022-10-12T13:24:24.518Z,101674.57
2022-10-12T13:27:01.652Z,101672.44
2022-10-12T13:29:42.726Z,101661.76
2022-10-12T13:32:26.811Z,101665.21
2022-10-12T13:35:03.546Z,101666.39
2022-10-12T13:37:37.315Z,101665.29
2022-10-12T13:40:30.378Z,101665.73
2022-10-12T13:43:28.168Z,101662.23
2022-10-12T13:46:00.643Z,101655.44
2022-10-12T13:48:58.702Z,101653.17
2022-10-12T13:51:30.111Z,101656.08
2022-10-12T13:54:02.466Z,101653.89
2022-10-12T13:56:35.532Z,101650.85
2022-10-12T13:59:18.495Z,101651.45
2022-10-12T14:01:59.293Z,101652.44
2022-10-12T14:04:33.726Z,101650.95
2022-10-12T14:07:07.500Z,101651.41
2022-10-12T14:09:44.915Z,101643.52
2022-10-12T14:12:20.613Z,101653.31
2022-10-12T14:14:56.379Z,101653.23
2022-10-12T14:17:28.731Z,101656.86
2022-10-12T14:20:27.849Z,101639.36
2022-10-12T14:23:03.268Z,101650.35
2022-10-12T14:25:35.963Z,101651.45
2022-10-12T14:28:20.513Z,101647.11
2022-10-12T14:30:56.179Z,101644.19
2022-10-12T14:33:35.389Z,101651.42
2022-10-12T14:36:24.453Z,101649.55
2022-10-12T14:39:01.592Z,101643.23
2022-10-12T14:41:37.737Z,101644.79
2022-10-12T14:44:17.795Z,101643.70
2022-10-12T14:46:54.036Z,101643.88
2022-10-12T14:49:28.078Z,101638.46
2022-10-12T14:52:01.910Z,101640.67
2022-10-12T14:54:34.085Z,101636.39
2022-10-12T14:57:15.278Z,101634.48
2022-10-12T14:59:47.975Z,101627.16
2022-10-12T15:02:23.244Z,101627.73
2022-10-12T15:04:56.722Z,101625.73
2022-10-12T15:07:31.313Z,101621.63
2022-10-12T15:10:04.501Z,101621.53
2022-10-12T15:12:37.801Z,101621.61
2022-10-12T15:15:29.070Z,101620.16
2022-10-12T15:18:02.140Z,101619.46
2022-10-12T15:20:35.405Z,101614.79
2022-10-12T15:23:08.315Z,101613.95
2022-10-12T15:25:46.263Z,101612.02
2022-10-12T15:28:18.617Z,101606.70
2022-10-12T15:31:16.621Z,101606.86
2022-10-12T15:33:44.005Z,101606.35
2022-10-12T15:36:16.368Z,101609.52
2022-10-12T15:38:48.648Z,101609.00
2022-10-12T15:41:22.097Z,101609.02
2022-10-12T15:43:54.360Z,101610.10
2022-10-12T15:46:29.320Z,101610.38
2022-10-12T15:49:02.003Z,101604.31
2022-10-12T15:51:36.985Z,101589.59
2022-10-12T15:54:09.442Z,101601.63
2022-10-12T15:56:41.491Z,101599.84
2022-10-12T15:59:13.659Z,101584.38
2022-10-12T16:01:46.225Z,101599.45
2022-10-12T16:04:19.129Z,101598.26
2022-10-12T16:06:52.132Z,101594.86
2022-10-12T16:09:24.417Z,101593.52
2022-10-12T16:11:56.479Z,101594.48
2022-10-12T16:14:29.059Z,101597.69
2022-10-12T16:17:04.911Z,101598.70
2022-10-12T16:19:37.605Z,101598.22
2022-10-12T16:22:11.979Z,101596.52
2022-10-12T16:24:44.384Z,101595.60
2022-10-12T16:27:16.808Z,101601.97
2022-10-12T16:29:49.271Z,101601.22
2022-10-12T16:32:21.495Z,101600.23
2022-10-12T16:34:53.862Z,101602.36
2022-10-12T16:37:25.965Z,101600.08
2022-10-12T16:39:58.563Z,101603.27
2022-10-12T16:42:31.126Z,101603.91
2022-10-12T16:45:03.327Z,101606.06
2022-10-12T16:47:38.930Z,101591.35
2022-10-12T16:50:15.482Z,101608.61
2022-10-12T16:52:47.868Z,101611.64
2022-10-12T16:55:21.505Z,101610.31
2022-10-12T16:57:53.676Z,101611.87
2022-10-12T17:00:25.919Z,101605.75
2022-10-12T17:02:58.136Z,101607.84
2022-10-12T17:05:30.383Z,101610.41
2022-10-12T17:08:03.243Z,101610.67
2022-10-12T17:10:35.383Z,101610.80
2022-10-12T17:13:07.609Z,101607.27
2022-10-12T17:15:43.473Z,101608.64
2022-10-12T17:18:15.672Z,101609.52
2022-10-12T17:20:49.502Z,101603.95
2022-10-12T17:23:24.441Z,101618.55
2022-10-12T17:26:02.867Z,101620.48
2022-10-12T17:28:37.574Z,101618.98
2022-10-12T17:31:11.835Z,101617.38
2022-10-12T17:33:45.057Z,101614.63
2022-10-12T17:36:18.318Z,101613.96
2022-10-12T17:38:53.512Z,101617.79
2022-10-12T17:41:25.448Z,101613.66
2022-10-12T17:43:57.639Z,101620.40
2022-10-12T17:46:29.797Z,101604.77
2022-10-12T17:49:03.732Z,101613.65
2022-10-12T17:51:36.192Z,101614.98
2022-10-12T17:54:09.005Z,101594.77
2022-10-12T17:56:41.534Z,101612.54
2022-10-12T17:59:17.675Z,101614.25
2022-10-12T18:01:50.194Z,101610.34
2022-10-12T18:04:24.163Z,101610.55
2022-10-12T18:06:56.555Z,101609.02
2022-10-12T18:09:28.995Z,101609.84
2022-10-12T18:12:01.619Z,101594.95
2022-10-12T18:14:33.807Z,101599.88
2022-10-12T18:17:06.140Z,101610.00
2022-10-12T18:19:38.209Z,101603.77
2022-10-12T18:22:10.423Z,101607.08
2022-10-12T18:24:43.527Z,101605.21
2022-10-12T18:27:15.789Z,101604.02
2022-10-12T18:29:47.991Z,101603.15
2022-10-12T18:32:20.399Z,101604.92
2022-10-12T18:34:54.316Z,101603.60
2022-10-12T18:37:27.037Z,101606.67
2022-10-12T18:40:00.119Z,101602.73
2022-10-12T18:42:32.593Z,101603.46
2022-10-12T18:45:04.897Z,101603.77
2022-10-12T18:47:38.125Z,101600.90
2022-10-12T18:50:12.205Z,101598.11
2022-10-12T18:52:44.378Z,101599.13
2022-10-12T18:55:17.345Z,101592.59
2022-10-12T18:57:49.634Z,101559.05
2022-10-12T19:00:22.017Z,101593.48
2022-10-12T19:02:54.461Z,101578.39
2022-10-12T19:05:27.613Z,101594.40
2022-10-12T19:07:59.802Z,101594.83
2022-10-12T19:10:32.154Z,101598.61
2022-10-12T19:13:04.354Z,101598.16
2022-10-12T19:15:39.262Z,101600.34
2022-10-12T19:18:11.224Z,101599.08
2022-10-12T19:20:44.103Z,101601.62
2022-10-12T19:23:17.937Z,101600.25
2022-10-12T19:25:50.657Z,101600.92
2022-10-12T19:28:22.930Z,101598.85
2022-10-12T19:30:55.285Z,101596.04
2022-10-12T19:33:28.742Z,101596.21
2022-10-12T19:36:03.181Z,101596.10
2022-10-12T19:38:36.189Z,101581.10
2022-10-12T19:41:09.759Z,101593.56
2022-10-12T19:43:43.050Z,101596.40
2022-10-12T19:46:15.989Z,101594.34
2022-10-12T19:48:51.014Z,101598.39
2022-10-12T19:51:24.683Z,101594.82
2022-10-12T19:53:59.454Z,101592.04
2022-10-12T19:56:32.696Z,101589.23
2022-10-12T19:59:05.093Z,101591.11
2022-10-12T20:01:40.903Z,101590.52
2022-10-12T20:04:13.115Z,101589.91
2022-10-12T20:17:06.345Z,101577.68
2022-10-12T20:19:39.486Z,101574.38
2022-10-12T20:22:12.295Z,101569.11
2022-10-12T20:24:44.623Z,101566.23
2022-10-12T20:27:17.332Z,101567.91
2022-10-12T20:29:49.730Z,101562.05
2022-10-12T20:32:21.949Z,101564.68
2022-10-12T20:34:55.862Z,101564.13
2022-10-12T20:37:28.403Z,101565.48
2022-10-12T20:40:01.183Z,101562.98
2022-10-12T20:42:33.459Z,101567.48
2022-10-12T20:45:07.105Z,101570.18
2022-10-12T20:47:41.999Z,101572.05
2022-10-12T20:50:15.868Z,101572.32
2022-10-12T20:52:49.765Z,101576.44
2022-10-12T20:55:22.269Z,101572.54
2022-10-12T20:57:55.705Z,101561.62
2022-10-12T21:00:28.502Z,101573.66
2022-10-12T21:03:00.784Z,101574.32
2022-10-12T21:05:35.273Z,101572.36
2022-10-12T21:08:07.873Z,101570.64
2022-10-12T21:10:47.227Z,101567.68
2022-10-12T21:13:19.368Z,101565.80
2022-10-12T21:15:54.250Z,101560.29
2022-10-12T21:18:24.943Z,101567.52
2022-10-12T21:20:59.548Z,101565.77
2022-10-12T21:23:32.199Z,101563.63
2022-10-12T21:26:11.708Z,101562.42
2022-10-12T21:28:44.768Z,101559.30
2022-10-12T21:31:18.071Z,101558.54
2022-10-12T21:33:51.000Z,101556.69
2022-10-12T21:36:24.859Z,101559.78
2022-10-12T21:38:57.498Z,101556.78
2022-10-12T21:41:31.055Z,101556.89
2022-10-12T21:44:03.804Z,101558.77
2022-10-12T21:46:37.468Z,101557.62
2022-10-12T21:49:12.380Z,101559.95
2022-10-12T21:51:44.952Z,101559.58
2022-10-12T21:54:17.443Z,101558.16
2022-10-12T21:56:49.687Z,101558.04
2022-10-12T21:59:22.375Z,101558.57
2022-10-12T22:01:54.553Z,101557.58
2022-10-12T22:04:27.536Z,101562.48
2022-10-12T22:07:00.652Z,101553.79
2022-10-12T22:09:33.345Z,101555.34
2022-10-12T22:12:05.918Z,101554.76
2022-10-12T22:14:38.043Z,101552.73
2022-10-12T22:17:10.111Z,101549.91
2022-10-12T22:19:43.713Z,101549.11
2022-10-12T22:22:15.982Z,101552.03
2022-10-12T22:24:48.764Z,101552.23
2022-10-12T22:27:21.093Z,101553.77
2022-10-12T22:29:53.822Z,101549.80
2022-10-12T22:32:26.788Z,101552.70
2022-10-12T22:34:59.406Z,101553.73
2022-10-12T22:37:31.728Z,101548.31
2022-10-12T22:40:05.035Z,101524.92
2022-10-12T22:42:37.273Z,101541.68
2022-10-12T22:45:11.682Z,101547.09
2022-10-12T22:47:43.708Z,101539.80
2022-10-12T22:50:16.058Z,101541.64
2022-10-12T22:52:48.015Z,101539.81
2022-10-12T22:55:20.315Z,101536.27
2022-10-12T22:57:52.513Z,101536.64
2022-10-12T23:00:25.750Z,101534.45
2022-10-12T23:02:58.036Z,101539.88
2022-10-12T23:05:30.696Z,101536.00
2022-10-12T23:08:03.166Z,101535.41
2022-10-12T23:10:35.638Z,101531.26
2022-10-12T23:13:08.295Z,101531.49
2022-10-12T23:15:40.434Z,101524.81
2022-10-12T23:18:13.076Z,101534.26
2022-10-12T23:20:45.563Z,101539.79
2022-10-12T23:23:17.789Z,101536.19
2022-10-12T23:25:49.975Z,101539.73
2022-10-12T23:28:22.197Z,101540.73
2022-10-12T23:30:55.934Z,101538.48
2022-10-12T23:33:28.783Z,101539.03
2022-10-12T23:36:02.751Z,101542.58
2022-10-12T23:38:37.051Z,101537.20
2022-10-12T23:41:10.722Z,101533.77
2022-10-12T23:43:43.450Z,101534.70
2022-10-12T23:46:15.618Z,101536.52
2022-10-12T23:48:48.036Z,101536.58
2022-10-12T23:51:20.506Z,101533.02
2022-10-12T23:53:52.850Z,101516.52
2022-10-12T23:56:25.593Z,101525.51
2022-10-12T23:58:58.243Z,101525.45
